sensor_id;sensor_type;location;lat;lon;timestamp;P1;durP1;ratioP1;P2;durP2;ratioP2
27921;SDS011;15261;50.356;10.340;2022-11-18T00:01:24;7.75;;;6.50;;
27921;SDS011;15261;50.356;10.340;2022-11-18T00:03:50;9.68;;;6.78;;
27921;SDS011;15261;50.356;10.340;2022-11-18T00:06:17;6.60;;;5.60;;
27921;SDS011;15261;50.356;10.340;2022-11-18T00:12:06;9.88;;;6.85;;
27921;SDS011;15261;50.356;10.340;2022-11-18T00:14:50;10.38;;;6.13;;
27921;SDS011;15261;50.356;10.340;2022-11-18T00:19:49;7.97;;;6.20;;
27921;SDS011;15261;50.356;10.340;2022-11-18T00:22:14;4.50;;;4.07;;
27921;SDS011;15261;50.356;10.340;2022-11-18T00:24:40;6.65;;;4.45;;
27921;SDS011;15261;50.356;10.340;2022-11-18T00:27:05;7.00;;;3.60;;
27921;SDS011;15261;50.356;10.340;2022-11-18T00:29:31;4.20;;;3.60;;
27921;SDS011;15261;50.356;10.340;2022-11-18T00:31:57;4.60;;;4.00;;
27921;SDS011;15261;50.356;10.340;2022-11-18T00:34:23;6.07;;;3.30;;
27921;SDS011;15261;50.356;10.340;2022-11-18T00:36:49;6.07;;;2.92;;
27921;SDS011;15261;50.356;10.340;2022-11-18T00:39:30;4.32;;;3.70;;
27921;SDS011;15261;50.356;10.340;2022-11-18T00:41:56;6.05;;;4.45;;
27921;SDS011;15261;50.356;10.340;2022-11-18T00:44:40;5.25;;;4.43;;
27921;SDS011;15261;50.356;10.340;2022-11-18T00:47:05;8.15;;;5.07;;
27921;SDS011;15261;50.356;10.340;2022-11-18T00:52:26;9.45;;;5.38;;
27921;SDS011;15261;50.356;10.340;2022-11-18T00:54:51;7.93;;;5.70;;
27921;SDS011;15261;50.356;10.340;2022-11-18T00:57:19;7.07;;;5.15;;
27921;SDS011;15261;50.356;10.340;2022-11-18T00:59:44;7.13;;;5.28;;
27921;SDS011;15261;50.356;10.340;2022-11-18T01:02:10;5.93;;;5.07;;
27921;SDS011;15261;50.356;10.340;2022-11-18T01:04:35;5.93;;;4.80;;
27921;SDS011;15261;50.356;10.340;2022-11-18T01:07:01;5.28;;;4.65;;
27921;SDS011;15261;50.356;10.340;2022-11-18T01:09:26;7.43;;;5.38;;
27921;SDS011;15261;50.356;10.340;2022-11-18T01:11:52;4.82;;;4.32;;
27921;SDS011;15261;50.356;10.340;2022-11-18T01:14:36;5.32;;;4.65;;
27921;SDS011;15261;50.356;10.340;2022-11-18T01:17:01;6.40;;;5.00;;
27921;SDS011;15261;50.356;10.340;2022-11-18T01:19:27;5.90;;;4.72;;
27921;SDS011;15261;50.356;10.340;2022-11-18T01:21:53;6.45;;;4.85;;
27921;SDS011;15261;50.356;10.340;2022-11-18T01:24:20;5.38;;;4.88;;
27921;SDS011;15261;50.356;10.340;2022-11-18T01:26:46;6.97;;;4.95;;
27921;SDS011;15261;50.356;10.340;2022-11-18T01:29:12;5.00;;;4.45;;
27921;SDS011;15261;50.356;10.340;2022-11-18T01:31:37;6.57;;;4.78;;
27921;SDS011;15261;50.356;10.340;2022-11-18T01:34:11;5.80;;;4.60;;
27921;SDS011;15261;50.356;10.340;2022-11-18T01:36:37;7.95;;;4.95;;
27921;SDS011;15261;50.356;10.340;2022-11-18T01:39:03;6.07;;;4.88;;
27921;SDS011;15261;50.356;10.340;2022-11-18T01:41:28;7.05;;;4.75;;
27921;SDS011;15261;50.356;10.340;2022-11-18T01:43:58;5.43;;;4.40;;
27921;SDS011;15261;50.356;10.340;2022-11-18T01:46:27;8.95;;;4.43;;
27921;SDS011;15261;50.356;10.340;2022-11-18T01:48:56;7.68;;;4.40;;
27921;SDS011;15261;50.356;10.340;2022-11-18T01:51:30;4.70;;;4.00;;
27921;SDS011;15261;50.356;10.340;2022-11-18T01:54:00;5.65;;;4.28;;
27921;SDS011;15261;50.356;10.340;2022-11-18T01:56:36;4.88;;;4.47;;
27921;SDS011;15261;50.356;10.340;2022-11-18T01:59:08;5.13;;;4.63;;
27921;SDS011;15261;50.356;10.340;2022-11-18T02:01:37;4.50;;;4.10;;
27921;SDS011;15261;50.356;10.340;2022-11-18T02:04:03;7.30;;;4.55;;
27921;SDS011;15261;50.356;10.340;2022-11-18T02:06:29;6.75;;;5.28;;
27921;SDS011;15261;50.356;10.340;2022-11-18T02:08:55;7.07;;;4.50;;
27921;SDS011;15261;50.356;10.340;2022-11-18T02:11:20;6.13;;;4.30;;
27921;SDS011;15261;50.356;10.340;2022-11-18T02:14:06;5.43;;;4.82;;
27921;SDS011;15261;50.356;10.340;2022-11-18T02:16:48;5.68;;;5.00;;
27921;SDS011;15261;50.356;10.340;2022-11-18T02:22:01;7.18;;;4.53;;
27921;SDS011;15261;50.356;10.340;2022-11-18T02:27:35;6.22;;;4.95;;
27921;SDS011;15261;50.356;10.340;2022-11-18T02:30:21;7.03;;;4.97;;
27921;SDS011;15261;50.356;10.340;2022-11-18T02:32:54;4.80;;;4.40;;
27921;SDS011;15261;50.356;10.340;2022-11-18T02:38:09;5.88;;;4.60;;
27921;SDS011;15261;50.356;10.340;2022-11-18T02:41:09;5.78;;;4.20;;
27921;SDS011;15261;50.356;10.340;2022-11-18T02:43:37;4.95;;;4.25;;
27921;SDS011;15261;50.356;10.340;2022-11-18T02:46:08;5.15;;;3.88;;
27921;SDS011;15261;50.356;10.340;2022-11-18T02:48:40;5.55;;;4.03;;
27921;SDS011;15261;50.356;10.340;2022-11-18T02:51:10;5.35;;;4.25;;
27921;SDS011;15261;50.356;10.340;2022-11-18T02:53:39;8.68;;;4.75;;
27921;SDS011;15261;50.356;10.340;2022-11-18T02:56:07;4.90;;;4.07;;
27921;SDS011;15261;50.356;10.340;2022-11-18T02:58:34;6.93;;;4.30;;
27921;SDS011;15261;50.356;10.340;2022-11-18T03:00:59;6.35;;;4.68;;
27921;SDS011;15261;50.356;10.340;2022-11-18T03:03:26;6.32;;;3.97;;
27921;SDS011;15261;50.356;10.340;2022-11-18T03:09:00;4.95;;;3.80;;
27921;SDS011;15261;50.356;10.340;2022-11-18T03:17:17;6.43;;;5.18;;
27921;SDS011;15261;50.356;10.340;2022-11-18T03:22:49;5.75;;;4.68;;
27921;SDS011;15261;50.356;10.340;2022-11-18T03:28:14;5.43;;;4.93;;
27921;SDS011;15261;50.356;10.340;2022-11-18T03:34:14;5.82;;;5.15;;
27921;SDS011;15261;50.356;10.340;2022-11-18T03:36:43;6.03;;;5.43;;
27921;SDS011;15261;50.356;10.340;2022-11-18T03:39:11;6.85;;;5.50;;
27921;SDS011;15261;50.356;10.340;2022-11-18T03:41:43;6.45;;;5.15;;
27921;SDS011;15261;50.356;10.340;2022-11-18T03:44:20;4.90;;;4.40;;
27921;SDS011;15261;50.356;10.340;2022-11-18T03:46:56;8.73;;;5.45;;
27921;SDS011;15261;50.356;10.340;2022-11-18T03:49:28;7.68;;;5.07;;
27921;SDS011;15261;50.356;10.340;2022-11-18T03:52:00;7.38;;;5.07;;
27921;SDS011;15261;50.356;10.340;2022-11-18T03:54:32;6.05;;;5.10;;
27921;SDS011;15261;50.356;10.340;2022-11-18T03:57:04;8.38;;;4.60;;
27921;SDS011;15261;50.356;10.340;2022-11-18T03:59:39;9.23;;;5.82;;
27921;SDS011;15261;50.356;10.340;2022-11-18T04:02:15;7.13;;;5.47;;
27921;SDS011;15261;50.356;10.340;2022-11-18T04:04:46;9.52;;;5.43;;
27921;SDS011;15261;50.356;10.340;2022-11-18T04:12:32;7.97;;;7.18;;
27921;SDS011;15261;50.356;10.340;2022-11-18T04:15:02;9.45;;;8.48;;
27921;SDS011;15261;50.356;10.340;2022-11-18T04:17:28;11.88;;;8.57;;
27921;SDS011;15261;50.356;10.340;2022-11-18T04:19:53;9.18;;;6.80;;
27921;SDS011;15261;50.356;10.340;2022-11-18T04:22:19;9.43;;;7.57;;
27921;SDS011;15261;50.356;10.340;2022-11-18T04:24:45;20.17;;;16.60;;
27921;SDS011;15261;50.356;10.340;2022-11-18T04:27:10;15.10;;;11.45;;
27921;SDS011;15261;50.356;10.340;2022-11-18T04:29:37;12.65;;;7.25;;
27921;SDS011;15261;50.356;10.340;2022-11-18T04:32:02;20.10;;;10.15;;
27921;SDS011;15261;50.356;10.340;2022-11-18T04:34:29;22.23;;;13.10;;
27921;SDS011;15261;50.356;10.340;2022-11-18T04:36:55;24.13;;;12.90;;
27921;SDS011;15261;50.356;10.340;2022-11-18T04:39:20;24.67;;;8.57;;
27921;SDS011;15261;50.356;10.340;2022-11-18T04:41:46;17.27;;;8.02;;
27921;SDS011;15261;50.356;10.340;2022-11-18T04:44:21;16.10;;;7.05;;
27921;SDS011;15261;50.356;10.340;2022-11-18T04:46:47;17.65;;;7.20;;
27921;SDS011;15261;50.356;10.340;2022-11-18T04:49:13;15.43;;;6.85;;
27921;SDS011;15261;50.356;10.340;2022-11-18T04:51:40;13.95;;;7.50;;
27921;SDS011;15261;50.356;10.340;2022-11-18T04:54:06;17.38;;;7.38;;
27921;SDS011;15261;50.356;10.340;2022-11-18T04:56:32;14.88;;;7.45;;
27921;SDS011;15261;50.356;10.340;2022-11-18T04:58:58;15.60;;;7.47;;
27921;SDS011;15261;50.356;10.340;2022-11-18T05:01:25;12.45;;;7.80;;
27921;SDS011;15261;50.356;10.340;2022-11-18T05:03:51;25.27;;;7.82;;
27921;SDS011;15261;50.356;10.340;2022-11-18T05:06:17;25.70;;;8.20;;
27921;SDS011;15261;50.356;10.340;2022-11-18T05:08:42;27.77;;;8.80;;
27921;SDS011;15261;50.356;10.340;2022-11-18T05:11:08;28.63;;;9.25;;
27921;SDS011;15261;50.356;10.340;2022-11-18T05:13:52;31.17;;;8.80;;
27921;SDS011;15261;50.356;10.340;2022-11-18T05:16:18;30.80;;;9.60;;
27921;SDS011;15261;50.356;10.340;2022-11-18T05:18:44;20.77;;;9.27;;
27921;SDS011;15261;50.356;10.340;2022-11-18T05:21:09;36.83;;;10.07;;
27921;SDS011;15261;50.356;10.340;2022-11-18T05:23:35;22.63;;;9.05;;
27921;SDS011;15261;50.356;10.340;2022-11-18T05:28:33;20.45;;;9.60;;
27921;SDS011;15261;50.356;10.340;2022-11-18T05:30:58;27.65;;;10.85;;
27921;SDS011;15261;50.356;10.340;2022-11-18T05:33:24;20.52;;;8.88;;
27921;SDS011;15261;50.356;10.340;2022-11-18T05:35:50;22.13;;;9.52;;
27921;SDS011;15261;50.356;10.340;2022-11-18T05:38:15;22.92;;;9.75;;
27921;SDS011;15261;50.356;10.340;2022-11-18T05:40:41;29.77;;;9.68;;
27921;SDS011;15261;50.356;10.340;2022-11-18T05:43:08;41.90;;;11.25;;
27921;SDS011;15261;50.356;10.340;2022-11-18T05:45:37;32.40;;;11.35;;
27921;SDS011;15261;50.356;10.340;2022-11-18T05:48:03;29.27;;;12.80;;
27921;SDS011;15261;50.356;10.340;2022-11-18T05:50:31;31.65;;;12.80;;
27921;SDS011;15261;50.356;10.340;2022-11-18T05:52:59;43.40;;;13.60;;
27921;SDS011;15261;50.356;10.340;2022-11-18T05:55:27;37.53;;;14.88;;
27921;SDS011;15261;50.356;10.340;2022-11-18T05:57:57;51.17;;;15.05;;
27921;SDS011;15261;50.356;10.340;2022-11-18T06:00:23;25.13;;;13.35;;
27921;SDS011;15261;50.356;10.340;2022-11-18T06:02:48;47.65;;;12.45;;
27921;SDS011;15261;50.356;10.340;2022-11-18T06:05:16;26.50;;;10.27;;
27921;SDS011;15261;50.356;10.340;2022-11-18T06:07:43;31.23;;;12.35;;
27921;SDS011;15261;50.356;10.340;2022-11-18T06:10:31;26.92;;;12.20;;
27921;SDS011;15261;50.356;10.340;2022-11-18T06:12:59;30.20;;;10.25;;
27921;SDS011;15261;50.356;10.340;2022-11-18T06:15:30;47.03;;;11.02;;
27921;SDS011;15261;50.356;10.340;2022-11-18T06:21:35;68.75;;;23.90;;
27921;SDS011;15261;50.356;10.340;2022-11-18T06:27:22;25.33;;;12.95;;
27921;SDS011;15261;50.356;10.340;2022-11-18T06:29:48;32.20;;;14.25;;
27921;SDS011;15261;50.356;10.340;2022-11-18T06:32:13;26.95;;;12.50;;
27921;SDS011;15261;50.356;10.340;2022-11-18T06:34:39;22.70;;;11.88;;
27921;SDS011;15261;50.356;10.340;2022-11-18T06:37:14;25.02;;;13.27;;
27921;SDS011;15261;50.356;10.340;2022-11-18T06:39:42;26.08;;;13.35;;
27921;SDS011;15261;50.356;10.340;2022-11-18T06:42:08;26.48;;;13.30;;
27921;SDS011;15261;50.356;10.340;2022-11-18T06:44:33;21.55;;;11.45;;
27921;SDS011;15261;50.356;10.340;2022-11-18T06:46:59;23.30;;;12.68;;
27921;SDS011;15261;50.356;10.340;2022-11-18T06:49:26;19.60;;;11.88;;
27921;SDS011;15261;50.356;10.340;2022-11-18T06:51:52;20.40;;;11.20;;
27921;SDS011;15261;50.356;10.340;2022-11-18T06:54:18;23.10;;;13.05;;
27921;SDS011;15261;50.356;10.340;2022-11-18T06:56:44;18.17;;;11.45;;
27921;SDS011;15261;50.356;10.340;2022-11-18T06:59:10;18.55;;;12.15;;
27921;SDS011;15261;50.356;10.340;2022-11-18T07:01:37;21.25;;;12.68;;
27921;SDS011;15261;50.356;10.340;2022-11-18T07:04:03;19.88;;;12.57;;
27921;SDS011;15261;50.356;10.340;2022-11-18T07:06:30;23.45;;;13.75;;
27921;SDS011;15261;50.356;10.340;2022-11-18T07:09:01;25.88;;;13.57;;
27921;SDS011;15261;50.356;10.340;2022-11-18T07:11:29;36.15;;;15.80;;
27921;SDS011;15261;50.356;10.340;2022-11-18T07:13:55;36.78;;;15.35;;
27921;SDS011;15261;50.356;10.340;2022-11-18T07:16:21;28.55;;;14.40;;
27921;SDS011;15261;50.356;10.340;2022-11-18T07:18:49;29.05;;;14.95;;
27921;SDS011;15261;50.356;10.340;2022-11-18T07:21:16;28.63;;;14.88;;
27921;SDS011;15261;50.356;10.340;2022-11-18T07:26:18;28.60;;;15.07;;
27921;SDS011;15261;50.356;10.340;2022-11-18T07:34:56;18.88;;;13.40;;
27921;SDS011;15261;50.356;10.340;2022-11-18T07:37:29;19.38;;;14.15;;
27921;SDS011;15261;50.356;10.340;2022-11-18T07:39:55;19.33;;;13.88;;
27921;SDS011;15261;50.356;10.340;2022-11-18T07:42:20;20.52;;;14.43;;
27921;SDS011;15261;50.356;10.340;2022-11-18T07:44:46;21.00;;;14.95;;
27921;SDS011;15261;50.356;10.340;2022-11-18T07:47:11;22.88;;;15.00;;
27921;SDS011;15261;50.356;10.340;2022-11-18T07:49:37;22.33;;;15.40;;
27921;SDS011;15261;50.356;10.340;2022-11-18T07:52:02;20.73;;;14.73;;
27921;SDS011;15261;50.356;10.340;2022-11-18T07:54:28;23.73;;;16.52;;
27921;SDS011;15261;50.356;10.340;2022-11-18T07:56:53;22.95;;;16.27;;
27921;SDS011;15261;50.356;10.340;2022-11-18T07:59:19;18.67;;;15.50;;
27921;SDS011;15261;50.356;10.340;2022-11-18T08:01:44;20.50;;;15.27;;
27921;SDS011;15261;50.356;10.340;2022-11-18T08:04:10;19.13;;;16.48;;
27921;SDS011;15261;50.356;10.340;2022-11-18T08:06:38;20.48;;;16.30;;
27921;SDS011;15261;50.356;10.340;2022-11-18T08:09:04;17.80;;;15.50;;
27921;SDS011;15261;50.356;10.340;2022-11-18T08:11:30;18.90;;;15.85;;
27921;SDS011;15261;50.356;10.340;2022-11-18T08:13:56;16.50;;;14.07;;
27921;SDS011;15261;50.356;10.340;2022-11-18T08:16:23;17.90;;;15.95;;
27921;SDS011;15261;50.356;10.340;2022-11-18T08:22:24;17.42;;;14.93;;
27921;SDS011;15261;50.356;10.340;2022-11-18T08:24:49;17.67;;;13.55;;
27921;SDS011;15261;50.356;10.340;2022-11-18T08:27:18;18.23;;;13.70;;
27921;SDS011;15261;50.356;10.340;2022-11-18T08:29:45;16.27;;;14.52;;
27921;SDS011;15261;50.356;10.340;2022-11-18T08:32:28;20.65;;;13.85;;
27921;SDS011;15261;50.356;10.340;2022-11-18T08:34:54;20.52;;;13.93;;
27921;SDS011;15261;50.356;10.340;2022-11-18T08:37:20;15.27;;;12.40;;
27921;SDS011;15261;50.356;10.340;2022-11-18T08:42:30;13.40;;;12.00;;
27921;SDS011;15261;50.356;10.340;2022-11-18T08:44:56;63.35;;;21.08;;
27921;SDS011;15261;50.356;10.340;2022-11-18T08:47:22;17.48;;;12.80;;
27921;SDS011;15261;50.356;10.340;2022-11-18T08:49:48;16.45;;;13.05;;
27921;SDS011;15261;50.356;10.340;2022-11-18T08:52:13;15.70;;;13.20;;
27921;SDS011;15261;50.356;10.340;2022-11-18T08:54:39;20.33;;;13.45;;
27921;SDS011;15261;50.356;10.340;2022-11-18T08:57:05;21.25;;;12.98;;
27921;SDS011;15261;50.356;10.340;2022-11-18T08:59:30;17.85;;;12.50;;
27921;SDS011;15261;50.356;10.340;2022-11-18T09:01:56;15.77;;;12.25;;
27921;SDS011;15261;50.356;10.340;2022-11-18T09:04:22;15.50;;;12.15;;
27921;SDS011;15261;50.356;10.340;2022-11-18T09:06:47;13.55;;;12.15;;
27921;SDS011;15261;50.356;10.340;2022-11-18T09:09:13;17.88;;;12.65;;
27921;SDS011;15261;50.356;10.340;2022-11-18T09:11:39;14.13;;;11.27;;
27921;SDS011;15261;50.356;10.340;2022-11-18T09:14:04;12.30;;;10.98;;
27921;SDS011;15261;50.356;10.340;2022-11-18T09:16:31;13.60;;;11.45;;
27921;SDS011;15261;50.356;10.340;2022-11-18T09:18:59;13.40;;;11.02;;
27921;SDS011;15261;50.356;10.340;2022-11-18T09:21:25;11.98;;;10.68;;
27921;SDS011;15261;50.356;10.340;2022-11-18T09:23:51;11.73;;;10.52;;
27921;SDS011;15261;50.356;10.340;2022-11-18T09:26:18;11.38;;;10.23;;
27921;SDS011;15261;50.356;10.340;2022-11-18T09:28:45;11.57;;;10.15;;
27921;SDS011;15261;50.356;10.340;2022-11-18T09:31:15;11.10;;;9.65;;
27921;SDS011;15261;50.356;10.340;2022-11-18T09:33:41;13.18;;;10.75;;
27921;SDS011;15261;50.356;10.340;2022-11-18T09:36:11;12.90;;;9.85;;
27921;SDS011;15261;50.356;10.340;2022-11-18T09:38:41;10.55;;;9.35;;
27921;SDS011;15261;50.356;10.340;2022-11-18T09:41:16;9.77;;;8.82;;
27921;SDS011;15261;50.356;10.340;2022-11-18T09:49:25;8.50;;;7.68;;
27921;SDS011;15261;50.356;10.340;2022-11-18T09:52:00;7.72;;;7.03;;
27921;SDS011;15261;50.356;10.340;2022-11-18T09:54:34;9.75;;;7.82;;
27921;SDS011;15261;50.356;10.340;2022-11-18T09:57:02;10.07;;;8.38;;
27921;SDS011;15261;50.356;10.340;2022-11-18T09:59:35;10.85;;;8.60;;
27921;SDS011;15261;50.356;10.340;2022-11-18T10:02:02;9.75;;;8.68;;
27921;SDS011;15261;50.356;10.340;2022-11-18T10:04:57;9.75;;;8.52;;
27921;SDS011;15261;50.356;10.340;2022-11-18T10:07:35;10.85;;;8.45;;
27921;SDS011;15261;50.356;10.340;2022-11-18T10:10:11;19.58;;;17.70;;
27921;SDS011;15261;50.356;10.340;2022-11-18T10:12:49;19.48;;;17.67;;
27921;SDS011;15261;50.356;10.340;2022-11-18T10:20:51;12.32;;;10.50;;
27921;SDS011;15261;50.356;10.340;2022-11-18T10:23:28;8.57;;;7.68;;
27921;SDS011;15261;50.356;10.340;2022-11-18T10:25:59;12.10;;;10.73;;
27921;SDS011;15261;50.356;10.340;2022-11-18T10:28:26;8.00;;;7.22;;
27921;SDS011;15261;50.356;10.340;2022-11-18T10:30:53;6.93;;;6.32;;
27921;SDS011;15261;50.356;10.340;2022-11-18T10:33:28;6.15;;;5.55;;
27921;SDS011;15261;50.356;10.340;2022-11-18T10:38:43;6.50;;;5.03;;
27921;SDS011;15261;50.356;10.340;2022-11-18T10:41:16;6.60;;;6.00;;
27921;SDS011;15261;50.356;10.340;2022-11-18T10:43:54;6.30;;;5.70;;
27921;SDS011;15261;50.356;10.340;2022-11-18T10:46:25;5.07;;;4.53;;
27921;SDS011;15261;50.356;10.340;2022-11-18T10:49:09;5.15;;;4.65;;
27921;SDS011;15261;50.356;10.340;2022-11-18T10:51:42;4.60;;;4.20;;
27921;SDS011;15261;50.356;10.340;2022-11-18T10:54:29;5.85;;;4.82;;
27921;SDS011;15261;50.356;10.340;2022-11-18T10:56:57;5.25;;;4.78;;
27921;SDS011;15261;50.356;10.340;2022-11-18T11:04:40;9.80;;;8.60;;
27921;SDS011;15261;50.356;10.340;2022-11-18T11:07:40;11.23;;;10.23;;
27921;SDS011;15261;50.356;10.340;2022-11-18T11:12:30;9.77;;;8.82;;
27921;SDS011;15261;50.356;10.340;2022-11-18T11:14:58;10.57;;;9.48;;
27921;SDS011;15261;50.356;10.340;2022-11-18T11:17:34;14.68;;;12.32;;
27921;SDS011;15261;50.356;10.340;2022-11-18T11:20:12;15.77;;;14.10;;
27921;SDS011;15261;50.356;10.340;2022-11-18T11:22:41;13.38;;;11.20;;
27921;SDS011;15261;50.356;10.340;2022-11-18T11:25:50;10.05;;;8.85;;
27921;SDS011;15261;50.356;10.340;2022-11-18T11:28:15;10.13;;;9.05;;
27921;SDS011;15261;50.356;10.340;2022-11-18T11:34:02;9.73;;;8.82;;
27921;SDS011;15261;50.356;10.340;2022-11-18T11:37:35;13.82;;;11.68;;
27921;SDS011;15261;50.356;10.340;2022-11-18T11:45:45;20.45;;;18.23;;
27921;SDS011;15261;50.356;10.340;2022-11-18T11:56:22;6.13;;;5.32;;
27921;SDS011;15261;50.356;10.340;2022-11-18T12:01:56;13.82;;;12.43;;
27921;SDS011;15261;50.356;10.340;2022-11-18T12:04:42;47.45;;;41.40;;
27921;SDS011;15261;50.356;10.340;2022-11-18T12:07:14;127.75;;;96.68;;
27921;SDS011;15261;50.356;10.340;2022-11-18T12:12:24;139.57;;;88.13;;
27921;SDS011;15261;50.356;10.340;2022-11-18T12:14:59;29.00;;;20.02;;
27921;SDS011;15261;50.356;10.340;2022-11-18T12:17:53;17.67;;;14.80;;
27921;SDS011;15261;50.356;10.340;2022-11-18T12:20:41;6.80;;;5.78;;
27921;SDS011;15261;50.356;10.340;2022-11-18T12:25:51;5.78;;;3.40;;
27921;SDS011;15261;50.356;10.340;2022-11-18T12:28:33;4.28;;;3.65;;
27921;SDS011;15261;50.356;10.340;2022-11-18T12:38:56;6.45;;;5.00;;
27921;SDS011;15261;50.356;10.340;2022-11-18T12:44:23;7.75;;;6.10;;
27921;SDS011;15261;50.356;10.340;2022-11-18T12:46:52;11.30;;;8.52;;
27921;SDS011;15261;50.356;10.340;2022-11-18T12:51:57;11.25;;;7.50;;
27921;SDS011;15261;50.356;10.340;2022-11-18T12:56:57;6.82;;;4.70;;
27921;SDS011;15261;50.356;10.340;2022-11-18T12:59:43;5.75;;;4.68;;
27921;SDS011;15261;50.356;10.340;2022-11-18T13:04:34;6.18;;;5.07;;
27921;SDS011;15261;50.356;10.340;2022-11-18T13:07:01;11.68;;;5.82;;
27921;SDS011;15261;50.356;10.340;2022-11-18T13:09:34;5.85;;;5.18;;
27921;SDS011;15261;50.356;10.340;2022-11-18T13:12:01;6.45;;;5.22;;
27921;SDS011;15261;50.356;10.340;2022-11-18T13:17:30;6.07;;;5.57;;
27921;SDS011;15261;50.356;10.340;2022-11-18T13:20:28;7.25;;;4.85;;
27921;SDS011;15261;50.356;10.340;2022-11-18T13:22:58;6.63;;;4.70;;
27921;SDS011;15261;50.356;10.340;2022-11-18T13:25:44;10.85;;;7.88;;
27921;SDS011;15261;50.356;10.340;2022-11-18T13:33:24;9.52;;;6.75;;
27921;SDS011;15261;50.356;10.340;2022-11-18T13:35:50;7.18;;;5.28;;
27921;SDS011;15261;50.356;10.340;2022-11-18T13:38:17;3.95;;;3.65;;
27921;SDS011;15261;50.356;10.340;2022-11-18T13:40:46;6.68;;;4.47;;
27921;SDS011;15261;50.356;10.340;2022-11-18T13:43:28;3.75;;;3.45;;
27921;SDS011;15261;50.356;10.340;2022-11-18T13:46:19;3.30;;;3.03;;
27921;SDS011;15261;50.356;10.340;2022-11-18T13:48:50;2.92;;;2.65;;
27921;SDS011;15261;50.356;10.340;2022-11-18T13:51:21;3.17;;;2.90;;
27921;SDS011;15261;50.356;10.340;2022-11-18T13:53:47;3.67;;;2.78;;
27921;SDS011;15261;50.356;10.340;2022-11-18T13:56:21;2.58;;;2.40;;
27921;SDS011;15261;50.356;10.340;2022-11-18T13:58:54;4.82;;;2.65;;
27921;SDS011;15261;50.356;10.340;2022-11-18T14:06:27;3.03;;;2.72;;
27921;SDS011;15261;50.356;10.340;2022-11-18T14:11:37;4.63;;;2.75;;
27921;SDS011;15261;50.356;10.340;2022-11-18T14:14:04;3.20;;;3.00;;
27921;SDS011;15261;50.356;10.340;2022-11-18T14:16:37;3.08;;;2.80;;
27921;SDS011;15261;50.356;10.340;2022-11-18T14:19:04;2.72;;;2.53;;
27921;SDS011;15261;50.356;10.340;2022-11-18T14:21:31;3.25;;;2.88;;
27921;SDS011;15261;50.356;10.340;2022-11-18T14:23:59;3.20;;;3.00;;
27921;SDS011;15261;50.356;10.340;2022-11-18T14:26:29;4.15;;;3.25;;
27921;SDS011;15261;50.356;10.340;2022-11-18T14:28:58;4.32;;;3.90;;
27921;SDS011;15261;50.356;10.340;2022-11-18T14:31:29;3.67;;;3.38;;
27921;SDS011;15261;50.356;10.340;2022-11-18T14:36:43;3.90;;;3.60;;
27921;SDS011;15261;50.356;10.340;2022-11-18T14:39:18;7.47;;;6.78;;
27921;SDS011;15261;50.356;10.340;2022-11-18T14:41:47;4.32;;;4.03;;
27921;SDS011;15261;50.356;10.340;2022-11-18T14:44:13;5.80;;;5.28;;
27921;SDS011;15261;50.356;10.340;2022-11-18T14:46:40;7.43;;;6.75;;
27921;SDS011;15261;50.356;10.340;2022-11-18T14:49:15;6.50;;;4.68;;
27921;SDS011;15261;50.356;10.340;2022-11-18T14:51:43;4.93;;;4.53;;
27921;SDS011;15261;50.356;10.340;2022-11-18T14:57:09;4.78;;;4.40;;
27921;SDS011;15261;50.356;10.340;2022-11-18T14:59:40;3.78;;;3.53;;
27921;SDS011;15261;50.356;10.340;2022-11-18T15:02:11;4.47;;;4.18;;
27921;SDS011;15261;50.356;10.340;2022-11-18T15:04:43;4.03;;;3.63;;
27921;SDS011;15261;50.356;10.340;2022-11-18T15:07:11;8.20;;;7.50;;
27921;SDS011;15261;50.356;10.340;2022-11-18T15:09:40;6.47;;;5.97;;
27921;SDS011;15261;50.356;10.340;2022-11-18T15:12:06;8.18;;;7.45;;
27921;SDS011;15261;50.356;10.340;2022-11-18T15:14:32;7.80;;;7.10;;
27921;SDS011;15261;50.356;10.340;2022-11-18T15:16:59;9.13;;;6.32;;
27921;SDS011;15261;50.356;10.340;2022-11-18T15:19:25;4.60;;;4.20;;
27921;SDS011;15261;50.356;10.340;2022-11-18T15:21:51;4.55;;;4.20;;
27921;SDS011;15261;50.356;10.340;2022-11-18T15:24:17;4.50;;;4.10;;
27921;SDS011;15261;50.356;10.340;2022-11-18T15:26:43;5.70;;;4.85;;
27921;SDS011;15261;50.356;10.340;2022-11-18T15:29:20;4.65;;;4.25;;
27921;SDS011;15261;50.356;10.340;2022-11-18T15:31:47;4.72;;;4.25;;
27921;SDS011;15261;50.356;10.340;2022-11-18T15:34:14;5.00;;;4.50;;
27921;SDS011;15261;50.356;10.340;2022-11-18T15:36:40;4.50;;;4.10;;
27921;SDS011;15261;50.356;10.340;2022-11-18T15:39:06;9.40;;;7.60;;
27921;SDS011;15261;50.356;10.340;2022-11-18T15:41:33;5.03;;;4.57;;
27921;SDS011;15261;50.356;10.340;2022-11-18T15:43:59;6.93;;;4.45;;
27921;SDS011;15261;50.356;10.340;2022-11-18T15:46:45;4.88;;;4.47;;
27921;SDS011;15261;50.356;10.340;2022-11-18T15:49:13;6.30;;;4.65;;
27921;SDS011;15261;50.356;10.340;2022-11-18T15:54:11;5.50;;;5.00;;
27921;SDS011;15261;50.356;10.340;2022-11-18T15:56:46;6.05;;;5.55;;
27921;SDS011;15261;50.356;10.340;2022-11-18T15:59:15;5.45;;;4.95;;
27921;SDS011;15261;50.356;10.340;2022-11-18T16:01:44;5.38;;;4.95;;
27921;SDS011;15261;50.356;10.340;2022-11-18T16:04:12;6.50;;;5.90;;
27921;SDS011;15261;50.356;10.340;2022-11-18T16:06:40;5.97;;;5.47;;
27921;SDS011;15261;50.356;10.340;2022-11-18T16:09:08;6.10;;;5.60;;
27921;SDS011;15261;50.356;10.340;2022-11-18T16:11:34;7.18;;;6.45;;
27921;SDS011;15261;50.356;10.340;2022-11-18T16:14:23;6.60;;;6.00;;
27921;SDS011;15261;50.356;10.340;2022-11-18T16:22:44;5.78;;;5.28;;
27921;SDS011;15261;50.356;10.340;2022-11-18T16:25:09;7.28;;;5.72;;
27921;SDS011;15261;50.356;10.340;2022-11-18T16:30:54;5.95;;;5.45;;
27921;SDS011;15261;50.356;10.340;2022-11-18T16:33:38;8.57;;;5.38;;
27921;SDS011;15261;50.356;10.340;2022-11-18T16:36:04;14.30;;;6.18;;
27921;SDS011;15261;50.356;10.340;2022-11-18T16:41:05;5.85;;;5.25;;
27921;SDS011;15261;50.356;10.340;2022-11-18T16:43:52;9.57;;;8.18;;
27921;SDS011;15261;50.356;10.340;2022-11-18T16:46:17;8.15;;;6.75;;
27921;SDS011;15261;50.356;10.340;2022-11-18T16:51:46;5.63;;;5.13;;
27921;SDS011;15261;50.356;10.340;2022-11-18T16:54:14;6.90;;;6.20;;
27921;SDS011;15261;50.356;10.340;2022-11-18T16:59:41;6.70;;;6.00;;
27921;SDS011;15261;50.356;10.340;2022-11-18T17:02:09;6.70;;;6.00;;
27921;SDS011;15261;50.356;10.340;2022-11-18T17:04:38;14.07;;;8.57;;
27921;SDS011;15261;50.356;10.340;2022-11-18T17:07:04;5.45;;;4.95;;
27921;SDS011;15261;50.356;10.340;2022-11-18T17:09:30;5.38;;;4.65;;
27921;SDS011;15261;50.356;10.340;2022-11-18T17:11:56;8.35;;;6.35;;
27921;SDS011;15261;50.356;10.340;2022-11-18T17:14:25;9.48;;;6.93;;
27921;SDS011;15261;50.356;10.340;2022-11-18T17:16:50;23.05;;;10.43;;
27921;SDS011;15261;50.356;10.340;2022-11-18T17:19:17;64.50;;;27.50;;
27921;SDS011;15261;50.356;10.340;2022-11-18T17:21:44;31.15;;;15.07;;
